createdAt,value
2019-05-12T00:00:04.624Z,534
2019-05-12T00:01:14.553Z,537
2019-05-12T00:02:21.751Z,537
2019-05-12T00:03:28.954Z,536
2019-05-12T00:04:38.371Z,539
2019-05-12T00:05:45.413Z,538
2019-05-12T00:06:55.012Z,538
2019-05-12T00:08:02.238Z,539
2019-05-12T00:09:09.527Z,541
2019-05-12T00:10:18.872Z,541
2019-05-12T00:11:28.497Z,541
2019-05-12T00:12:37.902Z,541
2019-05-12T00:13:47.346Z,541
2019-05-12T00:14:55.013Z,542
2019-05-12T00:16:01.935Z,542
2019-05-12T00:17:09.243Z,541
2019-05-12T00:18:18.940Z,540
2019-05-12T00:19:28.324Z,540
2019-05-12T00:20:35.678Z,539
2019-05-12T00:21:45.274Z,539
2019-05-12T00:22:54.983Z,539
2019-05-12T00:24:04.807Z,538
2019-05-12T00:25:12.013Z,539
2019-05-12T00:26:19.619Z,539
2019-05-12T00:27:29.343Z,539
2019-05-12T00:28:38.637Z,539
2019-05-12T00:29:45.834Z,538
2019-05-12T00:30:54.946Z,538
2019-05-12T00:32:04.511Z,538
2019-05-12T00:33:11.708Z,539
2019-05-12T00:34:19.559Z,540
2019-05-12T00:35:28.980Z,540
2019-05-12T00:36:38.128Z,539
2019-05-12T00:37:45.308Z,538
2019-05-12T00:38:52.523Z,539
2019-05-12T00:39:59.454Z,538
2019-05-12T00:41:08.995Z,539
2019-05-12T00:42:18.127Z,539
2019-05-12T00:43:27.908Z,538
2019-05-12T00:44:35.226Z,539
2019-05-12T00:45:42.424Z,538
2019-05-12T00:46:49.867Z,538
2019-05-12T00:47:59.410Z,538
2019-05-12T00:49:08.898Z,538
2019-05-12T00:50:18.300Z,537
2019-05-12T00:51:25.596Z,537
2019-05-12T00:52:32.805Z,538
2019-05-12T00:53:44.242Z,538
2019-05-12T00:54:51.439Z,539
2019-05-12T00:55:58.966Z,538
2019-05-12T00:57:08.661Z,538
2019-05-12T00:58:19.061Z,538
2019-05-12T00:59:28.887Z,539
2019-05-12T01:00:39.473Z,538
2019-05-12T01:01:49.171Z,538
2019-05-12T01:02:59.007Z,538
2019-05-12T01:04:08.489Z,538
2019-05-12T01:05:18.138Z,538
2019-05-12T01:06:25.070Z,538
2019-05-12T01:07:32.268Z,537
2019-05-12T01:08:39.467Z,537
2019-05-12T01:09:48.605Z,536
2019-05-12T01:10:58.514Z,538
2019-05-12T01:12:07.777Z,536
2019-05-12T01:13:14.830Z,538
2019-05-12T01:14:22.026Z,538
2019-05-12T01:15:29.898Z,537
2019-05-12T01:16:39.454Z,537
2019-05-12T01:17:48.672Z,537
2019-05-12T01:18:58.463Z,536
2019-05-12T01:20:05.767Z,538
2019-05-12T01:21:15.535Z,537
2019-05-12T01:22:25.144Z,537
2019-05-12T01:23:34.459Z,538
2019-05-12T01:24:41.659Z,537
2019-05-12T01:25:51.849Z,537
2019-05-12T01:26:59.329Z,537
2019-05-12T01:28:09.112Z,538
2019-05-12T01:29:18.577Z,538
2019-05-12T01:30:25.513Z,536
2019-05-12T01:31:35.070Z,536
2019-05-12T01:32:44.546Z,537
2019-05-12T01:33:51.747Z,537
2019-05-12T01:34:58.948Z,538
2019-05-12T01:36:07.792Z,537
2019-05-12T01:37:15.106Z,537
2019-05-12T01:38:22.309Z,536
2019-05-12T01:39:29.514Z,538
2019-05-12T01:40:39.958Z,538
2019-05-12T01:41:49.143Z,537
2019-05-12T01:42:59.134Z,538
2019-05-12T01:44:08.592Z,537
2019-05-12T01:45:18.423Z,537
2019-05-12T01:46:25.622Z,538
2019-05-12T01:47:36.009Z,537
2019-05-12T01:48:45.236Z,537
2019-05-12T01:49:55.107Z,537
2019-05-12T01:51:04.818Z,539
2019-05-12T01:52:12.016Z,538
2019-05-12T01:53:18.952Z,538
2019-05-12T01:54:28.748Z,538
2019-05-12T01:55:35.681Z,537
2019-05-12T01:56:45.252Z,539
2019-05-12T01:57:54.978Z,538
2019-05-12T01:59:04.401Z,539
2019-05-12T02:00:11.607Z,539
2019-05-12T02:01:19.232Z,539
2019-05-12T02:02:29.013Z,540
2019-05-12T02:03:38.593Z,540
2019-05-12T02:04:45.520Z,539
2019-05-12T02:05:52.171Z,540
2019-05-12T02:06:59.372Z,538
2019-05-12T02:08:06.571Z,540
2019-05-12T02:09:18.517Z,541
2019-05-12T02:10:28.266Z,539
2019-05-12T02:11:37.808Z,540
2019-05-12T02:12:45.145Z,540
2019-05-12T02:13:52.346Z,540
2019-05-12T02:14:59.907Z,540
2019-05-12T02:16:09.228Z,541
2019-05-12T02:17:18.873Z,540
2019-05-12T02:18:28.075Z,540
2019-05-12T02:19:35.339Z,540
2019-05-12T02:20:42.541Z,541
2019-05-12T02:21:49.846Z,541
2019-05-12T02:22:59.278Z,542
2019-05-12T02:24:26.493Z,540
2019-05-12T02:25:39.077Z,541
2019-05-12T02:26:48.493Z,541
2019-05-12T02:27:58.120Z,542
2019-05-12T02:29:07.598Z,542
2019-05-12T02:30:15.043Z,542
2019-05-12T02:31:22.257Z,541
2019-05-12T02:32:54.637Z,542
2019-05-12T02:34:06.817Z,542
2019-05-12T02:35:17.192Z,542
2019-05-12T02:36:26.953Z,544
2019-05-12T02:37:36.590Z,544
2019-05-12T02:38:46.359Z,543
2019-05-12T02:39:56.614Z,544
2019-05-12T02:41:05.788Z,542
2019-05-12T02:42:16.556Z,543
2019-05-12T02:43:25.494Z,544
2019-05-12T02:44:35.619Z,543
2019-05-12T02:45:45.717Z,547
2019-05-12T02:46:55.700Z,545
2019-05-12T02:48:06.428Z,545
2019-05-12T02:49:16.744Z,545
2019-05-12T02:50:25.780Z,544
2019-05-12T02:51:36.248Z,545
2019-05-12T02:52:45.366Z,544
2019-05-12T02:53:55.496Z,544
2019-05-12T02:55:07.286Z,545
2019-05-12T02:56:16.225Z,544
2019-05-12T02:57:26.612Z,544
2019-05-12T02:58:35.766Z,545
2019-05-12T02:59:45.795Z,544
2019-05-12T03:00:55.772Z,544
2019-05-12T03:02:06.169Z,543
2019-05-12T03:03:15.828Z,544
2019-05-12T03:04:25.352Z,545
2019-05-12T03:05:35.981Z,545
2019-05-12T03:06:45.600Z,544
2019-05-12T03:07:56.153Z,544
2019-05-12T03:09:05.558Z,544
2019-05-12T03:10:15.462Z,543
2019-05-12T03:11:25.795Z,544
2019-05-12T03:12:35.499Z,544
2019-05-12T03:13:45.817Z,543
2019-05-12T03:14:55.406Z,543
2019-05-12T03:16:05.798Z,545
2019-05-12T03:17:16.243Z,545
2019-05-12T03:18:26.324Z,545
2019-05-12T03:19:35.339Z,545
2019-05-12T03:20:45.909Z,545
2019-05-12T03:21:55.825Z,545
2019-05-12T03:23:07.525Z,544
2019-05-12T03:24:18.320Z,544
2019-05-12T03:25:30.886Z,545
2019-05-12T03:26:45.505Z,545
2019-05-12T03:27:55.437Z,544
2019-05-12T03:29:06.369Z,544
2019-05-12T03:30:20.555Z,543
2019-05-12T03:31:40.908Z,544
2019-05-12T03:32:49.080Z,544
2019-05-12T03:34:07.662Z,545
2019-05-12T03:35:19.296Z,543
2019-05-12T03:36:45.021Z,544
2019-05-12T03:37:58.909Z,544
2019-05-12T03:39:06.104Z,545
2019-05-12T03:40:15.523Z,545
2019-05-12T03:41:25.682Z,544
2019-05-12T03:42:36.658Z,543
2019-05-12T03:43:45.928Z,545
2019-05-12T03:44:55.731Z,545
2019-05-12T03:46:06.131Z,543
2019-05-12T03:47:15.536Z,543
2019-05-12T03:48:26.216Z,544
2019-05-12T03:49:35.810Z,544
2019-05-12T03:50:47.034Z,544
2019-05-12T03:51:55.385Z,544
2019-05-12T03:53:15.060Z,545
2019-05-12T03:54:25.495Z,545
2019-05-12T03:55:47.398Z,545
2019-05-12T03:56:56.778Z,545
2019-05-12T03:58:05.528Z,545
2019-05-12T03:59:15.629Z,546
2019-05-12T04:00:25.851Z,546
2019-05-12T04:01:37.540Z,545
2019-05-12T04:02:46.416Z,546
2019-05-12T04:03:55.255Z,545
2019-05-12T04:05:06.124Z,545
2019-05-12T04:06:16.817Z,544
2019-05-12T04:07:25.408Z,547
2019-05-12T04:08:35.640Z,545
2019-05-12T04:09:46.008Z,546
2019-05-12T04:10:55.887Z,547
2019-05-12T04:12:06.190Z,546
2019-05-12T04:13:16.221Z,546
2019-05-12T04:14:26.296Z,546
2019-05-12T04:15:36.311Z,547
2019-05-12T04:16:46.218Z,547
2019-05-12T04:17:55.327Z,547
2019-05-12T04:19:06.039Z,547
2019-05-12T04:20:16.250Z,547
2019-05-12T04:21:25.436Z,548
2019-05-12T04:22:35.561Z,549
2019-05-12T04:23:45.416Z,549
2019-05-12T04:24:56.010Z,548
2019-05-12T04:26:17.413Z,549
2019-05-12T04:27:26.205Z,549
2019-05-12T04:28:36.212Z,548
2019-05-12T04:29:45.190Z,549
2019-05-12T04:30:55.418Z,549
2019-05-12T04:32:05.571Z,548
2019-05-12T04:33:16.699Z,549
2019-05-12T04:34:26.207Z,548
2019-05-12T04:35:36.597Z,549
2019-05-12T04:36:45.916Z,549
2019-05-12T04:37:56.363Z,549
2019-05-12T04:39:05.349Z,550
2019-05-12T04:40:15.692Z,550
2019-05-12T04:41:26.926Z,550
2019-05-12T04:42:36.017Z,550
2019-05-12T04:43:45.790Z,551
2019-05-12T04:44:56.076Z,552
2019-05-12T04:46:06.135Z,551
2019-05-12T04:47:15.616Z,552
2019-05-12T04:48:26.638Z,552
2019-05-12T04:49:35.369Z,552
2019-05-12T04:50:45.662Z,553
2019-05-12T04:51:55.626Z,552
2019-05-12T04:53:07.516Z,553
2019-05-12T04:54:16.299Z,553
2019-05-12T04:55:26.704Z,553
2019-05-12T04:56:37.037Z,554
2019-05-12T04:57:46.151Z,553
2019-05-12T04:58:55.650Z,554
2019-05-12T05:00:06.099Z,554
2019-05-12T05:01:16.616Z,554
2019-05-12T05:02:26.132Z,556
2019-05-12T05:03:36.033Z,556
2019-05-12T05:04:45.104Z,556
2019-05-12T05:05:55.271Z,555
2019-05-12T05:07:05.446Z,555
2019-05-12T05:08:20.261Z,555
2019-05-12T05:09:27.466Z,554
2019-05-12T05:10:35.645Z,555
2019-05-12T05:11:45.987Z,555
2019-05-12T05:12:55.225Z,556
2019-05-12T05:14:05.200Z,557
2019-05-12T05:15:15.533Z,556
2019-05-12T05:16:25.337Z,556
2019-05-12T05:17:35.723Z,557
2019-05-12T05:18:44.918Z,557
2019-05-12T05:19:54.345Z,558
2019-05-12T05:21:01.551Z,557
2019-05-12T05:22:10.786Z,557
2019-05-12T05:23:20.418Z,558
2019-05-12T05:24:27.620Z,557
2019-05-12T05:25:35.214Z,556
2019-05-12T05:26:44.250Z,556
2019-05-12T05:27:53.692Z,556
2019-05-12T05:29:00.893Z,557
2019-05-12T05:30:08.092Z,556
2019-05-12T05:31:15.018Z,556
2019-05-12T05:32:24.258Z,556
2019-05-12T05:33:32.030Z,554
2019-05-12T05:34:52.788Z,554
2019-05-12T05:36:14.901Z,555
2019-05-12T05:37:30.670Z,556
2019-05-12T05:38:46.035Z,555
2019-05-12T05:39:57.947Z,555
2019-05-12T05:41:13.680Z,553
2019-05-12T05:42:33.291Z,553
2019-05-12T05:43:53.317Z,552
2019-05-12T05:45:18.575Z,552
2019-05-12T05:46:45.354Z,550
2019-05-12T05:48:10.110Z,551
2019-05-12T05:49:17.268Z,550
2019-05-12T05:50:39.119Z,551
2019-05-12T05:51:57.992Z,548
2019-05-12T05:53:15.322Z,548
2019-05-12T05:54:39.943Z,546
2019-05-12T05:56:00.254Z,547
2019-05-12T05:57:07.562Z,547
2019-05-12T05:58:16.465Z,545
2019-05-12T05:59:37.160Z,545
2019-05-12T06:00:44.557Z,546
2019-05-12T06:01:55.466Z,546
2019-05-12T06:03:14.504Z,545
2019-05-12T06:04:45.248Z,544
2019-05-12T06:06:12.982Z,543
2019-05-12T06:07:39.394Z,544
2019-05-12T06:08:46.599Z,543
2019-05-12T06:09:54.659Z,545
2019-05-12T06:11:01.583Z,544
2019-05-12T06:12:13.024Z,545
2019-05-12T06:13:32.311Z,545
2019-05-12T06:14:59.578Z,545
2019-05-12T06:16:22.028Z,546
2019-05-12T06:17:33.687Z,545
2019-05-12T06:18:43.717Z,547
2019-05-12T06:19:50.829Z,546
2019-05-12T06:21:00.596Z,547
2019-05-12T06:22:18.989Z,545
2019-05-12T06:23:39.209Z,545
2019-05-12T06:24:58.939Z,544
2019-05-12T06:26:06.246Z,544
2019-05-12T06:27:21.738Z,544
2019-05-12T06:28:41.239Z,543
2019-05-12T06:30:05.904Z,542
2019-05-12T06:31:24.988Z,544
2019-05-12T06:32:36.529Z,542
2019-05-12T06:33:47.973Z,540
2019-05-12T06:35:04.700Z,539
2019-05-12T06:36:27.545Z,534
2019-05-12T06:37:34.953Z,532
2019-05-12T06:38:44.380Z,531
2019-05-12T06:40:00.544Z,531
2019-05-12T06:41:25.268Z,530
2019-05-12T06:42:35.143Z,528
2019-05-12T06:43:46.081Z,528
2019-05-12T06:44:58.836Z,529
2019-05-12T06:46:05.765Z,528
2019-05-12T06:47:15.241Z,529
2019-05-12T06:48:33.082Z,529
2019-05-12T06:49:40.182Z,527
2019-05-12T06:50:47.381Z,526
2019-05-12T06:52:07.506Z,526
2019-05-12T06:53:15.020Z,527
2019-05-12T06:54:28.741Z,527
2019-05-12T06:55:40.160Z,526
2019-05-12T06:57:20.632Z,526
2019-05-12T06:58:35.523Z,525
2019-05-12T06:59:53.021Z,527
2019-05-12T07:01:19.271Z,526
2019-05-12T07:02:48.651Z,525
2019-05-12T07:04:10.760Z,526
2019-05-12T07:05:17.684Z,526
2019-05-12T07:06:25.760Z,525
2019-05-12T07:07:45.975Z,525
2019-05-12T07:09:16.113Z,526
2019-05-12T07:10:57.288Z,525
2019-05-12T07:12:14.714Z,525
2019-05-12T07:13:30.002Z,524
2019-05-12T07:14:37.206Z,524
2019-05-12T07:15:44.966Z,523
2019-05-12T07:17:05.926Z,521
2019-05-12T07:18:24.030Z,519
2019-05-12T07:19:41.160Z,521
2019-05-12T07:20:50.648Z,522
2019-05-12T07:22:03.398Z,523
2019-05-12T07:23:30.874Z,522
2019-05-12T07:24:52.710Z,523
2019-05-12T07:26:19.808Z,523
2019-05-12T07:27:45.531Z,522
2019-05-12T07:29:06.752Z,522
2019-05-12T07:30:14.721Z,522
2019-05-12T07:31:24.232Z,523
2019-05-12T07:32:34.571Z,524
2019-05-12T07:33:46.493Z,525
2019-05-12T07:34:55.435Z,523
2019-05-12T07:36:07.243Z,525
2019-05-12T07:37:16.008Z,522
2019-05-12T07:38:26.763Z,524
2019-05-12T07:39:49.599Z,523
2019-05-12T07:41:10.870Z,524
2019-05-12T07:42:31.068Z,524
2019-05-12T07:43:50.426Z,525
2019-05-12T07:45:05.798Z,523
2019-05-12T07:46:14.114Z,523
2019-05-12T07:47:29.937Z,524
2019-05-12T07:48:50.895Z,524
2019-05-12T07:49:58.186Z,522
2019-05-12T07:51:05.111Z,522
2019-05-12T07:52:14.433Z,522
2019-05-12T07:53:23.843Z,520
2019-05-12T07:54:40.097Z,519
2019-05-12T07:55:50.415Z,520
2019-05-12T07:57:17.601Z,520
2019-05-12T07:58:25.094Z,520
2019-05-12T07:59:43.662Z,520
2019-05-12T08:01:07.112Z,522
2019-05-12T08:02:15.339Z,523
2019-05-12T08:03:24.977Z,522
2019-05-12T08:04:43.846Z,520
2019-05-12T08:06:04.465Z,521
2019-05-12T08:07:11.500Z,521
2019-05-12T08:08:20.914Z,521
2019-05-12T08:09:36.992Z,523
2019-05-12T08:10:45.388Z,523
2019-05-12T08:11:58.382Z,521
2019-05-12T08:13:05.857Z,523
2019-05-12T08:14:29.662Z,523
2019-05-12T08:15:50.269Z,523
2019-05-12T08:17:19.914Z,522
2019-05-12T08:18:41.220Z,523
2019-05-12T08:19:48.163Z,523
2019-05-12T08:20:55.199Z,522
2019-05-12T08:22:04.795Z,522
2019-05-12T08:23:14.475Z,521
2019-05-12T08:24:24.208Z,521
2019-05-12T08:25:31.411Z,520
2019-05-12T08:26:43.414Z,521
2019-05-12T08:28:16.095Z,520
2019-05-12T08:29:31.130Z,520
2019-05-12T08:30:54.802Z,519
2019-05-12T08:32:04.477Z,518
2019-05-12T08:33:16.890Z,516
2019-05-12T08:34:24.779Z,516
2019-05-12T08:35:38.957Z,515
2019-05-12T08:36:58.481Z,516
2019-05-12T08:38:05.425Z,516
2019-05-12T08:39:26.207Z,516
2019-05-12T08:40:46.306Z,517
2019-05-12T08:42:00.563Z,516
2019-05-12T08:43:11.460Z,515
2019-05-12T08:44:24.380Z,517
2019-05-12T08:45:45.527Z,516
2019-05-12T08:46:57.301Z,513
2019-05-12T08:48:10.044Z,512
2019-05-12T08:49:25.954Z,511
2019-05-12T08:50:36.955Z,513
2019-05-12T08:51:55.644Z,514
2019-05-12T08:53:26.494Z,514
2019-05-12T08:54:34.648Z,513
2019-05-12T08:55:46.529Z,514
2019-05-12T08:57:03.729Z,516
2019-05-12T08:58:10.854Z,515
2019-05-12T08:59:36.161Z,514
2019-05-12T09:00:51.109Z,513
2019-05-12T09:02:10.599Z,512
2019-05-12T09:03:30.681Z,511
2019-05-12T09:04:55.913Z,510
2019-05-12T09:06:15.339Z,512
2019-05-12T09:07:39.945Z,511
2019-05-12T09:08:50.442Z,510
2019-05-12T09:09:57.381Z,513
2019-05-12T09:11:04.597Z,513
2019-05-12T09:12:13.858Z,513
2019-05-12T09:13:23.289Z,512
2019-05-12T09:14:46.466Z,512
2019-05-12T09:15:55.141Z,513
2019-05-12T09:17:08.011Z,513
2019-05-12T09:18:16.153Z,512
2019-05-12T09:19:28.142Z,512
2019-05-12T09:20:53.386Z,512
2019-05-12T09:22:21.157Z,510
2019-05-12T09:23:45.372Z,510
2019-05-12T09:25:04.165Z,510
2019-05-12T09:26:28.487Z,510
2019-05-12T09:27:49.417Z,511
2019-05-12T09:28:56.750Z,512
2019-05-12T09:30:10.106Z,513
2019-05-12T09:31:29.589Z,512
2019-05-12T09:32:53.713Z,514
2019-05-12T09:34:15.872Z,512
2019-05-12T09:35:34.683Z,512
2019-05-12T09:36:46.181Z,512
2019-05-12T09:38:21.153Z,509
2019-05-12T09:39:47.205Z,510
2019-05-12T09:41:05.470Z,510
2019-05-12T09:42:19.150Z,513
2019-05-12T09:43:40.055Z,512
2019-05-12T09:44:59.911Z,511
2019-05-12T09:46:15.520Z,511
2019-05-12T09:47:28.426Z,510
2019-05-12T09:48:52.181Z,510
2019-05-12T09:50:04.145Z,508
2019-05-12T09:51:18.286Z,508
2019-05-12T09:52:28.088Z,507
2019-05-12T09:53:35.303Z,507
2019-05-12T09:54:44.564Z,505
2019-05-12T09:55:53.752Z,501
2019-05-12T09:57:01.060Z,499
2019-05-12T09:58:07.999Z,496
2019-05-12T09:59:26.015Z,492
2019-05-12T10:00:38.319Z,493
2019-05-12T10:01:47.037Z,495
2019-05-12T10:03:01.338Z,492
2019-05-12T10:04:19.651Z,491
2019-05-12T10:05:41.254Z,493
2019-05-12T10:06:50.889Z,488
2019-05-12T10:07:59.919Z,483
2019-05-12T10:09:20.067Z,483
2019-05-12T10:10:40.386Z,479
2019-05-12T10:12:05.689Z,476
2019-05-12T10:13:14.831Z,475
2019-05-12T10:14:24.000Z,477
2019-05-12T10:15:33.019Z,476
2019-05-12T10:16:50.291Z,472
2019-05-12T10:18:11.238Z,470
2019-05-12T10:19:20.689Z,467
2019-05-12T10:20:39.790Z,464
2019-05-12T10:21:59.620Z,464
2019-05-12T10:23:22.712Z,466
2019-05-12T10:24:58.568Z,468
2019-05-12T10:26:14.966Z,467
2019-05-12T10:27:34.969Z,474
2019-05-12T10:28:58.597Z,467
2019-05-12T10:30:24.463Z,464
2019-05-12T10:31:39.644Z,462
2019-05-12T10:32:46.858Z,470
2019-05-12T10:33:58.820Z,476
2019-05-12T10:35:06.039Z,472
2019-05-12T10:36:12.972Z,474
2019-05-12T10:37:29.890Z,471
2019-05-12T10:38:36.843Z,461
2019-05-12T10:39:44.054Z,461
2019-05-12T10:40:51.270Z,459
2019-05-12T10:41:58.486Z,459
2019-05-12T10:43:05.898Z,467
2019-05-12T10:44:14.907Z,471
2019-05-12T10:45:36.776Z,464
2019-05-12T10:46:43.447Z,453
2019-05-12T10:47:50.659Z,459
2019-05-12T10:48:57.878Z,455
2019-05-12T10:50:05.086Z,456
2019-05-12T10:51:12.301Z,460
2019-05-12T10:52:19.515Z,455
2019-05-12T10:53:26.449Z,452
2019-05-12T10:54:35.322Z,456
2019-05-12T10:55:44.999Z,466
2019-05-12T10:56:55.133Z,456
2019-05-12T10:58:07.535Z,458
2019-05-12T10:59:38.650Z,458
2019-05-12T11:01:08.630Z,454
2019-05-12T11:02:26.299Z,449
2019-05-12T11:03:42.777Z,448
2019-05-12T11:04:57.817Z,446
2019-05-12T11:06:08.733Z,445
2019-05-12T11:07:15.966Z,450
2019-05-12T11:08:25.612Z,454
2019-05-12T11:09:35.430Z,455
2019-05-12T11:10:42.642Z,455
2019-05-12T11:11:49.861Z,459
2019-05-12T11:14:31.620Z,454
2019-05-12T11:15:50.224Z,448
2019-05-12T11:16:57.167Z,450
2019-05-12T11:18:09.020Z,454
2019-05-12T11:19:16.237Z,455
2019-05-12T11:20:25.701Z,447
2019-05-12T11:21:34.661Z,449
2019-05-12T11:22:44.839Z,452
2019-05-12T11:23:54.771Z,450
2019-05-12T11:25:04.877Z,447
2019-05-12T11:26:14.045Z,447
2019-05-12T11:27:21.318Z,449
2019-05-12T11:28:30.477Z,448
2019-05-12T11:29:50.077Z,445
2019-05-12T11:30:57.298Z,441
2019-05-12T11:32:04.519Z,438
2019-05-12T11:33:11.738Z,439
2019-05-12T11:34:18.677Z,438
2019-05-12T11:35:25.892Z,448
2019-05-12T11:36:35.385Z,448
2019-05-12T11:37:42.596Z,446
2019-05-12T11:38:49.542Z,451
2019-05-12T11:39:58.123Z,447
2019-05-12T11:41:15.950Z,440
2019-05-12T11:42:27.174Z,438
2019-05-12T11:43:34.839Z,440
2019-05-12T11:44:41.498Z,438
2019-05-12T11:45:53.291Z,444
2019-05-12T11:47:00.636Z,442
2019-05-12T11:48:11.396Z,445
2019-05-12T11:49:28.492Z,440
2019-05-12T11:50:40.346Z,443
2019-05-12T11:52:07.236Z,441
2019-05-12T11:53:34.999Z,434
2019-05-12T11:54:53.615Z,428
2019-05-12T11:56:09.319Z,452
2019-05-12T11:57:30.224Z,448
2019-05-12T11:58:51.986Z,450
2019-05-12T12:00:05.853Z,440
2019-05-12T12:01:14.245Z,438
2019-05-12T12:02:31.025Z,433
2019-05-12T12:03:38.240Z,447
2019-05-12T12:04:45.180Z,444
2019-05-12T12:05:54.672Z,440
2019-05-12T12:07:01.886Z,430
2019-05-12T12:08:08.865Z,440
2019-05-12T12:09:19.821Z,442
2019-05-12T12:10:39.873Z,439
2019-05-12T12:11:47.006Z,432
2019-05-12T12:12:54.978Z,434
2019-05-12T12:14:11.141Z,432
2019-05-12T12:15:30.225Z,433
2019-05-12T12:16:52.174Z,424
2019-05-12T12:18:15.713Z,428
2019-05-12T12:19:43.811Z,436
2019-05-12T12:21:07.843Z,429
2019-05-12T12:22:20.207Z,430
2019-05-12T12:23:35.075Z,437
2019-05-12T12:24:44.507Z,439
2019-05-12T12:25:53.871Z,437
2019-05-12T12:27:01.088Z,432
2019-05-12T12:28:10.284Z,434
2019-05-12T12:29:17.220Z,432
2019-05-12T12:30:24.750Z,432
2019-05-12T12:31:39.418Z,436
2019-05-12T12:32:56.571Z,443
2019-05-12T12:34:07.260Z,434
2019-05-12T12:35:16.065Z,434
2019-05-12T12:36:24.691Z,427
2019-05-12T12:37:46.550Z,433
2019-05-12T12:38:54.703Z,439
2019-05-12T12:40:04.675Z,438
2019-05-12T12:41:14.136Z,437
2019-05-12T12:42:21.343Z,435
2019-05-12T12:43:30.915Z,433
2019-05-12T12:44:38.124Z,430
2019-05-12T12:45:45.334Z,429
2019-05-12T12:47:02.421Z,424
2019-05-12T12:48:09.633Z,431
2019-05-12T12:49:16.855Z,449
2019-05-12T12:50:31.160Z,443
2019-05-12T12:51:38.094Z,439
2019-05-12T12:52:49.695Z,438
2019-05-12T12:53:56.629Z,438
2019-05-12T12:55:09.046Z,433
2019-05-12T12:56:30.452Z,432
2019-05-12T12:57:50.780Z,433
2019-05-12T12:59:14.549Z,432
2019-05-12T13:00:53.355Z,432
2019-05-12T13:02:09.909Z,424
2019-05-12T13:03:29.941Z,429
2019-05-12T13:04:50.274Z,429
2019-05-12T13:05:57.684Z,426
2019-05-12T13:07:05.702Z,428
2019-05-12T13:08:12.649Z,433
2019-05-12T13:09:25.670Z,434
2019-05-12T13:10:34.749Z,428
2019-05-12T13:11:44.258Z,422
2019-05-12T13:13:04.062Z,424
2019-05-12T13:14:13.962Z,426
2019-05-12T13:15:24.163Z,425
2019-05-12T13:16:31.378Z,427
2019-05-12T13:17:45.198Z,428
2019-05-12T13:18:54.782Z,430
2019-05-12T13:20:01.417Z,419
2019-05-12T13:21:08.368Z,440
2019-05-12T13:22:19.902Z,462
2019-05-12T13:23:41.655Z,479
2019-05-12T13:24:48.871Z,453
2019-05-12T13:25:55.872Z,439
2019-05-12T13:27:04.595Z,439
2019-05-12T13:28:25.697Z,433
2019-05-12T13:29:40.554Z,429
2019-05-12T13:30:50.616Z,427
2019-05-12T13:31:57.834Z,457
2019-05-12T13:33:18.319Z,452
2019-05-12T13:34:38.569Z,434
2019-05-12T13:35:55.528Z,425
2019-05-12T13:37:09.239Z,423
2019-05-12T13:38:24.991Z,423
2019-05-12T13:39:36.974Z,452
2019-05-12T13:40:45.262Z,453
2019-05-12T13:42:03.098Z,461
2019-05-12T13:43:19.869Z,435
2019-05-12T13:44:40.772Z,445
2019-05-12T13:45:50.306Z,476
2019-05-12T13:46:59.837Z,468
2019-05-12T13:48:20.054Z,478
2019-05-12T13:49:42.784Z,488
2019-05-12T13:51:15.591Z,494
2019-05-12T13:52:33.080Z,481
2019-05-12T13:53:50.265Z,447
2019-05-12T13:55:07.699Z,433
2019-05-12T13:56:25.254Z,421
2019-05-12T13:57:57.966Z,432
2019-05-12T13:59:05.303Z,426
2019-05-12T14:00:14.983Z,417
2019-05-12T14:01:24.653Z,428
2019-05-12T14:02:34.545Z,459
2019-05-12T14:03:53.524Z,440
2019-05-12T14:05:14.915Z,438
2019-05-12T14:06:37.912Z,433
2019-05-12T14:07:49.882Z,425
2019-05-12T14:09:04.990Z,440
2019-05-12T14:10:14.872Z,461
2019-05-12T14:11:24.742Z,475
2019-05-12T14:12:31.951Z,485
2019-05-12T14:13:39.163Z,469
2019-05-12T14:14:46.103Z,443
2019-05-12T14:15:54.659Z,432
2019-05-12T14:17:04.421Z,433
2019-05-12T14:18:21.236Z,423
2019-05-12T14:19:37.292Z,430
2019-05-12T14:20:58.407Z,440
2019-05-12T14:22:07.291Z,423
2019-05-12T14:23:27.247Z,419
2019-05-12T14:24:47.313Z,421
2019-05-12T14:25:55.295Z,418
2019-05-12T14:27:05.054Z,415
2019-05-12T14:28:17.362Z,422
2019-05-12T14:29:33.301Z,424
2019-05-12T14:30:52.099Z,431
2019-05-12T14:32:05.987Z,426
2019-05-12T14:33:12.926Z,419
2019-05-12T14:34:24.049Z,416
2019-05-12T14:35:45.954Z,423
2019-05-12T14:37:10.881Z,419
2019-05-12T14:38:30.314Z,419
2019-05-12T14:39:50.599Z,422
2019-05-12T14:41:11.701Z,420
2019-05-12T14:42:37.363Z,430
2019-05-12T14:44:03.344Z,436
2019-05-12T14:45:10.627Z,431
2019-05-12T14:46:17.840Z,428
2019-05-12T14:47:30.796Z,428
2019-05-12T14:48:50.548Z,426
2019-05-12T14:49:57.857Z,430
2019-05-12T14:51:05.088Z,441
2019-05-12T14:52:14.419Z,442
2019-05-12T14:53:24.126Z,438
2019-05-12T14:54:31.331Z,430
2019-05-12T14:55:38.539Z,427
2019-05-12T14:56:58.395Z,426
2019-05-12T14:58:21.347Z,422
2019-05-12T14:59:41.441Z,434
2019-05-12T15:00:58.178Z,454
2019-05-12T15:02:07.255Z,474
2019-05-12T15:03:17.210Z,481
2019-05-12T15:04:30.536Z,476
2019-05-12T15:05:48.858Z,442
2019-05-12T15:07:10.102Z,427
2019-05-12T15:08:40.181Z,432
2019-05-12T15:09:47.571Z,433
2019-05-12T15:10:54.792Z,434
2019-05-12T15:12:04.485Z,427
2019-05-12T15:13:13.783Z,429
2019-05-12T15:14:38.329Z,439
2019-05-12T15:15:50.018Z,444
2019-05-12T15:17:06.826Z,439
2019-05-12T15:18:16.764Z,429
2019-05-12T15:19:30.507Z,420
2019-05-12T15:20:51.657Z,416
2019-05-12T15:22:11.686Z,415
2019-05-12T15:23:37.189Z,417
2019-05-12T15:24:55.069Z,420
2019-05-12T15:26:19.874Z,418
2019-05-12T15:27:48.540Z,429
2019-05-12T15:28:55.801Z,441
2019-05-12T15:30:23.439Z,433
2019-05-12T15:31:34.510Z,434
2019-05-12T15:32:41.708Z,426
2019-05-12T15:33:48.659Z,427
2019-05-12T15:34:55.597Z,421
2019-05-12T15:36:05.163Z,423
2019-05-12T15:37:12.109Z,426
2019-05-12T15:38:19.320Z,425
2019-05-12T15:39:26.535Z,431
2019-05-12T15:40:33.475Z,434
2019-05-12T15:41:40.687Z,434
2019-05-12T15:42:47.626Z,440
2019-05-12T15:43:56.915Z,448
2019-05-12T15:45:16.350Z,466
2019-05-12T15:46:25.549Z,457
2019-05-12T15:47:35.148Z,443
2019-05-12T15:48:45.116Z,438
2019-05-12T15:49:54.199Z,430
2019-05-12T15:51:09.245Z,427
2019-05-12T15:52:16.197Z,422
2019-05-12T15:53:27.824Z,426
2019-05-12T15:54:51.078Z,427
2019-05-12T15:56:22.965Z,418
2019-05-12T15:57:34.484Z,425
2019-05-12T15:58:44.011Z,429
2019-05-12T15:59:51.382Z,448
2019-05-12T16:01:00.816Z,438
2019-05-12T16:02:17.625Z,431
2019-05-12T16:03:27.427Z,421
2019-05-12T16:04:48.349Z,421
2019-05-12T16:05:55.678Z,425
2019-05-12T16:07:04.727Z,430
2019-05-12T16:08:14.742Z,425
2019-05-12T16:09:24.304Z,426
2019-05-12T16:10:31.516Z,427
2019-05-12T16:11:38.735Z,426
2019-05-12T16:12:45.680Z,425
2019-05-12T16:13:59.977Z,440
2019-05-12T16:15:17.036Z,440
2019-05-12T16:16:25.928Z,438
2019-05-12T16:17:35.221Z,441
2019-05-12T16:18:51.263Z,436
2019-05-12T16:20:00.646Z,436
2019-05-12T16:21:10.416Z,439
2019-05-12T16:22:17.631Z,444
2019-05-12T16:23:30.827Z,441
2019-05-12T16:24:37.764Z,439
2019-05-12T16:25:44.984Z,433
2019-05-12T16:26:54.044Z,433
2019-05-12T16:28:01.257Z,442
2019-05-12T16:29:08.467Z,434
2019-05-12T16:30:20.147Z,434
2019-05-12T16:31:50.515Z,455
2019-05-12T16:32:57.476Z,469
2019-05-12T16:34:06.899Z,477
2019-05-12T16:35:29.792Z,488
2019-05-12T16:36:52.510Z,466
2019-05-12T16:38:20.171Z,458
2019-05-12T16:39:44.039Z,452
2019-05-12T16:40:54.923Z,452
2019-05-12T16:42:10.931Z,450
2019-05-12T16:43:18.151Z,446